Time;durP1;ratioP1;P1;durP2;ratioP2;P2;SDS_P1;SDS_P2;PMS_P1;PMS_P2;Temp;Humidity;BMP_temperature;BMP_pressure;BME280_temperature;BME280_humidity;BME280_pressure;Samples;Min_cycle;Max_cycle;Signal;HPM_P1;HPM_P2
2023/07/01 00:01:29;;;;;;;4.78;2.65;;;;;;;18.34;100.00;100770.84;5027262;28;20017;-58
2023/07/01 00:03:55;;;;;;;9.32;2.83;;;;;;;18.34;100.00;100768.16;5027089;28;20036;-58
2023/07/01 00:06:20;;;;;;;7.50;3.17;;;;;;;18.33;100.00;100760.25;5028708;28;20378;-59
2023/07/01 00:08:45;;;;;;;8.00;2.83;;;;;;;18.26;100.00;100758.00;5027957;28;20048;-57
2023/07/01 00:11:11;;;;;;;5.53;2.80;;;;;;;18.48;100.00;100747.69;5027975;28;20036;-58
2023/07/01 00:13:36;;;;;;;10.02;3.05;;;;;;;18.42;100.00;100749.81;5027348;28;20028;-58
2023/07/01 00:16:02;;;;;;;7.30;2.40;;;;;;;18.48;100.00;100751.19;5027174;28;20032;-57
2023/07/01 00:18:27;;;;;;;7.85;2.90;;;;;;;18.37;100.00;100749.28;5028208;28;20389;-58
2023/07/01 00:20:53;;;;;;;5.40;2.83;;;;;;;18.31;100.00;100734.53;5026863;28;20168;-56
2023/07/01 00:23:19;;;;;;;6.50;2.80;;;;;;;18.34;100.00;100738.81;5028370;28;20026;-57
2023/07/01 00:25:44;;;;;;;7.15;3.15;;;;;;;18.25;100.00;100728.78;5027544;28;20051;-55
2023/07/01 00:28:09;;;;;;;9.35;3.20;;;;;;;18.25;100.00;100734.97;4993704;28;20110;-58
2023/07/01 00:30:35;;;;;;;9.95;3.33;;;;;;;18.04;100.00;100731.91;5026354;28;20046;-57
2023/07/01 00:33:00;;;;;;;8.18;3.42;;;;;;;18.23;100.00;100715.56;5027608;28;20053;-58
2023/07/01 00:35:26;;;;;;;8.20;3.13;;;;;;;18.29;100.00;100700.94;5009327;28;20053;-57
2023/07/01 00:37:51;;;;;;;6.63;3.30;;;;;;;18.13;100.00;100712.69;5027418;28;20473;-56
2023/07/01 00:40:17;;;;;;;9.27;3.65;;;;;;;18.22;100.00;100711.19;5028333;28;20033;-58
2023/07/01 00:42:43;;;;;;;7.35;3.60;;;;;;;18.23;100.00;100699.56;5027294;28;20417;-57
2023/07/01 00:45:08;;;;;;;11.27;4.20;;;;;;;18.24;100.00;100700.41;5026840;28;20539;-59
2023/07/01 00:47:34;;;;;;;13.65;4.55;;;;;;;18.22;100.00;100691.66;5008344;28;20029;-57
2023/07/01 00:49:59;;;;;;;6.18;3.90;;;;;;;18.24;100.00;100700.41;5009513;28;20052;-58
2023/07/01 00:52:25;;;;;;;6.30;4.28;;;;;;;18.16;100.00;100696.47;5027134;28;20030;-55
2023/07/01 00:54:50;;;;;;;8.05;4.25;;;;;;;18.17;100.00;100692.84;5007575;28;20466;-60
2023/07/01 00:57:15;;;;;;;10.35;4.47;;;;;;;17.99;100.00;100686.03;5027310;28;20163;-55
2023/07/01 00:59:41;;;;;;;8.55;4.55;;;;;;;17.90;100.00;100688.38;5036484;28;20040;-60
2023/07/01 01:02:11;;;;;;;9.20;4.20;;;;;;;17.99;100.00;100673.59;5046359;28;20036;-57
2023/07/01 01:05:02;;;;;;;9.32;4.32;;;;;;;17.94;100.00;100687.22;5011233;28;20480;-57
2023/07/01 01:07:45;;;;;;;11.55;4.28;;;;;;;17.94;100.00;100676.56;5027098;28;20029;-58
2023/07/01 01:10:14;;;;;;;10.10;3.70;;;;;;;18.08;100.00;100673.91;5027553;28;20038;-58
2023/07/01 01:12:40;;;;;;;11.70;4.47;;;;;;;17.98;100.00;100673.69;5009686;28;20806;-57
2023/07/01 01:15:08;;;;;;;9.02;4.45;;;;;;;18.01;100.00;100666.34;5010248;28;20034;-60
2023/07/01 01:17:35;;;;;;;9.23;4.07;;;;;;;18.12;100.00;100654.94;5013787;28;20454;-57
2023/07/01 01:20:13;;;;;;;13.05;4.57;;;;;;;18.11;100.00;100653.25;5030026;28;20025;-56
2023/07/01 01:22:44;;;;;;;9.35;4.40;;;;;;;18.02;100.00;100653.84;5031517;28;20068;-58
2023/07/01 01:25:15;;;;;;;8.93;4.30;;;;;;;18.11;100.00;100649.72;5030152;28;20029;-56
2023/07/01 01:27:41;;;;;;;9.77;4.70;;;;;;;18.17;100.00;100642.16;5013031;28;20525;-57
2023/07/01 01:30:07;;;;;;;6.95;4.50;;;;;;;18.20;100.00;100635.75;5029424;28;20137;-57
2023/07/01 01:32:36;;;;;;;12.88;4.80;;;;;;;18.21;100.00;100633.97;5030884;28;20029;-55
2023/07/01 01:35:02;;;;;;;7.97;4.88;;;;;;;18.12;100.00;100635.47;5115872;22;20668;-58
2023/07/01 01:37:41;;;;;;;10.85;5.05;;;;;;;18.02;100.00;100628.06;5050123;28;20056;-57
2023/07/01 01:40:33;;;;;;;12.82;5.47;;;;;;;18.00;100.00;100613.13;5032137;28;20025;-59
2023/07/01 01:43:21;;;;;;;18.52;5.30;;;;;;;17.81;100.00;100617.03;5032827;28;20032;-57
2023/07/01 01:45:47;;;;;;;12.63;5.50;;;;;;;17.66;100.00;100601.16;5020065;28;20064;-57
2023/07/01 01:48:13;;;;;;;10.63;5.85;;;;;;;17.79;100.00;100611.00;5012572;28;20030;-59
2023/07/01 01:50:39;;;;;;;11.00;5.90;;;;;;;17.71;100.00;100602.66;5030162;28;20112;-58
2023/07/01 01:53:05;;;;;;;14.70;5.80;;;;;;;17.62;100.00;100604.13;5029440;28;20446;-57
2023/07/01 01:55:31;;;;;;;17.00;6.72;;;;;;;17.66;100.00;100605.63;5037070;28;20445;-55
2023/07/01 01:57:58;;;;;;;15.00;5.95;;;;;;;17.83;100.00;100601.81;5050359;28;20044;-62
2023/07/01 02:00:23;;;;;;;13.90;6.13;;;;;;;17.63;100.00;100595.16;5048673;28;20459;-59
2023/07/01 02:02:49;;;;;;;10.13;5.95;;;;;;;17.64;100.00;100596.91;5050629;28;20025;-56
2023/07/01 02:05:14;;;;;;;19.70;7.63;;;;;;;17.68;100.00;100596.59;5032199;28;20124;-55
2023/07/01 02:07:40;;;;;;;13.00;6.53;;;;;;;17.72;100.00;100599.00;5031366;28;20108;-58
2023/07/01 02:10:06;;;;;;;10.88;6.82;;;;;;;17.74;100.00;100591.78;5030165;28;20476;-58
2023/07/01 02:12:32;;;;;;;12.25;6.88;;;;;;;17.84;100.00;100590.19;5030351;28;20032;-59
2023/07/01 02:14:57;;;;;;;9.32;6.88;;;;;;;17.85;100.00;100589.22;5029541;28;20035;-59
2023/07/01 02:17:22;;;;;;;14.43;7.18;;;;;;;17.78;100.00;100587.94;5037724;28;20050;-58
2023/07/01 02:19:48;;;;;;;9.30;6.55;;;;;;;17.77;100.00;100573.78;5050516;28;20078;-57
2023/07/01 02:22:13;;;;;;;10.73;6.60;;;;;;;17.88;100.00;100573.03;5049486;28;20036;-56
2023/07/01 02:24:38;;;;;;;10.77;6.72;;;;;;;17.93;100.00;100567.38;5049795;28;20469;-58
2023/07/01 02:27:04;;;;;;;12.07;7.25;;;;;;;17.93;100.00;100572.72;5047818;28;20037;-59
2023/07/01 02:29:30;;;;;;;11.45;6.53;;;;;;;17.95;100.00;100578.78;5049301;28;20036;-55
2023/07/01 02:31:55;;;;;;;11.18;6.50;;;;;;;17.92;100.00;100571.88;5048623;28;20028;-58
2023/07/01 02:34:27;;;;;;;13.65;6.88;;;;;;;17.97;100.00;100568.03;5048638;28;20123;-60
2023/07/01 02:36:54;;;;;;;10.48;6.60;;;;;;;17.75;100.00;100564.16;5049789;28;20445;-57
2023/07/01 02:39:19;;;;;;;14.80;6.05;;;;;;;17.92;100.00;100557.69;5049280;28;20710;-58
2023/07/01 02:41:45;;;;;;;10.15;6.20;;;;;;;17.97;100.00;100566.19;5049225;28;20025;-59
2023/07/01 02:44:11;;;;;;;12.30;6.13;;;;;;;17.92;100.00;100569.22;5048179;28;20033;-58
2023/07/01 02:46:37;;;;;;;13.77;5.70;;;;;;;18.01;100.00;100559.72;5047161;28;20043;-60
2023/07/01 02:49:02;;;;;;;11.93;5.40;;;;;;;18.13;100.00;100555.38;5049141;28;20461;-57
2023/07/01 02:51:28;;;;;;;8.30;5.70;;;;;;;18.07;100.00;100555.75;5048771;28;20033;-58
2023/07/01 02:53:53;;;;;;;9.07;5.38;;;;;;;18.02;100.00;100549.88;5047939;28;20096;-60
2023/07/01 02:56:18;;;;;;;12.48;6.07;;;;;;;17.99;100.00;100550.09;5032508;28;20029;-58
2023/07/01 02:58:44;;;;;;;8.07;5.47;;;;;;;18.09;100.00;100553.81;5028976;28;20037;-57
2023/07/01 03:01:09;;;;;;;11.65;5.80;;;;;;;18.11;100.00;100551.94;5041241;28;20029;-56
2023/07/01 03:03:34;;;;;;;11.77;6.18;;;;;;;18.23;100.00;100549.34;5048544;28;20053;-58
2023/07/01 03:06:00;;;;;;;7.88;6.18;;;;;;;18.09;100.00;100543.16;5047742;28;20040;-57
2023/07/01 03:08:25;;;;;;;8.02;6.40;;;;;;;17.96;100.00;100548.50;5047980;28;20032;-56
2023/07/01 03:10:50;;;;;;;11.40;5.95;;;;;;;18.12;100.00;100544.81;5048515;28;20112;-61
2023/07/01 03:13:16;;;;;;;9.02;6.18;;;;;;;18.13;100.00;100539.38;5048502;28;20082;-58
2023/07/01 03:15:41;;;;;;;12.27;5.93;;;;;;;18.08;100.00;100538.78;5046733;28;20116;-57
2023/07/01 03:18:07;;;;;;;10.93;6.47;;;;;;;18.14;100.00;100530.41;5063991;28;20061;-56
2023/07/01 03:20:33;;;;;;;9.32;6.20;;;;;;;18.11;100.00;100532.41;5068141;28;20534;-59
2023/07/01 03:22:58;;;;;;;7.75;6.28;;;;;;;18.01;100.00;100534.84;5049718;28;20021;-58
2023/07/01 03:25:24;;;;;;;10.52;6.25;;;;;;;18.03;100.00;100520.47;5056613;28;20082;-57
2023/07/01 03:27:50;;;;;;;12.70;6.55;;;;;;;18.09;100.00;100524.50;5030984;28;20468;-57
2023/07/01 03:30:16;;;;;;;12.57;7.25;;;;;;;18.04;100.00;100508.00;5047483;28;20025;-58
2023/07/01 03:32:46;;;;;;;12.23;7.18;;;;;;;18.08;100.00;100506.81;5041655;28;20499;-59
2023/07/01 03:35:12;;;;;;;9.88;6.25;;;;;;;18.02;100.00;100499.25;5010300;28;20064;-58
2023/07/01 03:37:38;;;;;;;13.23;7.00;;;;;;;18.02;100.00;100499.25;5027323;28;20030;-58
2023/07/01 03:40:04;;;;;;;12.10;6.95;;;;;;;17.93;100.00;100496.28;5029005;28;20021;-58
2023/07/01 03:42:30;;;;;;;8.27;6.88;;;;;;;18.08;100.00;100497.94;5048117;28;20033;-59
2023/07/01 03:44:56;;;;;;;8.60;6.47;;;;;;;18.05;100.00;100489.22;5028966;28;20051;-59
2023/07/01 03:47:21;;;;;;;12.75;6.32;;;;;;;18.10;100.00;100496.94;5047624;28;20071;-58
2023/07/01 03:49:47;;;;;;;8.88;6.13;;;;;;;17.98;100.00;100498.63;5048288;28;20125;-59
2023/07/01 03:52:12;;;;;;;7.97;6.20;;;;;;;18.03;100.00;100495.63;5068097;28;20060;-58
2023/07/01 03:54:38;;;;;;;9.85;6.03;;;;;;;18.02;100.00;100485.91;5067909;28;20460;-57
2023/07/01 03:57:03;;;;;;;7.63;5.55;;;;;;;17.92;100.00;100489.25;5058203;28;20354;-60
2023/07/01 03:59:28;;;;;;;8.98;5.65;;;;;;;18.01;100.00;100484.22;5048239;28;20511;-60
2023/07/01 04:01:54;;;;;;;5.95;5.10;;;;;;;18.03;100.00;100476.97;5047101;28;20039;-62
2023/07/01 04:04:19;;;;;;;7.47;5.20;;;;;;;18.03;100.00;100479.63;5045760;28;20421;-59
2023/07/01 04:06:45;;;;;;;6.45;4.90;;;;;;;18.08;100.00;100472.16;5048409;28;20115;-59
2023/07/01 04:09:12;;;;;;;5.75;5.13;;;;;;;18.00;100.00;100471.84;5048377;28;20036;-61
2023/07/01 04:11:40;;;;;;;7.55;5.18;;;;;;;18.06;100.00;100468.72;5025122;28;20075;-59
2023/07/01 04:14:05;;;;;;;6.37;5.30;;;;;;;18.02;100.00;100459.25;5044411;28;20074;-58
2023/07/01 04:16:32;;;;;;;6.05;5.03;;;;;;;18.14;100.00;100466.41;5047255;28;20367;-59
2023/07/01 04:18:58;;;;;;;5.28;4.75;;;;;;;18.20;100.00;100465.09;5046845;28;20032;-60
2023/07/01 04:21:23;;;;;;;6.95;5.30;;;;;;;18.12;100.00;100452.31;5047682;28;20040;-61
2023/07/01 04:23:49;;;;;;;5.00;4.60;;;;;;;18.13;100.00;100458.53;5048320;28;20385;-60
2023/07/01 04:26:14;;;;;;;5.88;4.70;;;;;;;18.15;100.00;100457.44;5022918;28;20056;-60
2023/07/01 04:28:40;;;;;;;5.93;4.90;;;;;;;18.19;100.00;100469.56;5040809;28;20041;-59
2023/07/01 04:31:05;;;;;;;7.55;4.90;;;;;;;18.10;100.00;100458.72;5046907;28;20100;-59
2023/07/01 04:33:31;;;;;;;6.55;5.18;;;;;;;18.24;100.00;100449.75;5035118;28;20026;-59
2023/07/01 04:35:56;;;;;;;6.32;4.78;;;;;;;18.35;100.00;100455.16;5047344;28;20039;-59
2023/07/01 04:38:21;;;;;;;5.45;4.95;;;;;;;18.36;100.00;100448.84;5047466;28;20029;-61
2023/07/01 04:40:47;;;;;;;4.90;4.47;;;;;;;18.26;100.00;100447.81;5030088;28;20033;-60
2023/07/01 04:43:12;;;;;;;6.00;5.00;;;;;;;18.35;100.00;100441.81;5041347;28;20045;-60
2023/07/01 04:45:41;;;;;;;8.30;5.10;;;;;;;18.34;100.00;100444.59;5039077;28;20032;-59
2023/07/01 04:48:06;;;;;;;5.72;5.22;;;;;;;18.41;100.00;100441.34;5047367;28;20094;-59
2023/07/01 04:50:31;;;;;;;6.90;5.15;;;;;;;18.39;100.00;100445.13;5049807;28;20083;-60
2023/07/01 04:52:57;;;;;;;7.65;5.43;;;;;;;18.27;100.00;100437.03;5051597;28;20032;-60
2023/07/01 04:55:22;;;;;;;6.20;5.53;;;;;;;18.14;100.00;100437.09;5028116;28;20028;-60
2023/07/01 04:57:47;;;;;;;8.13;5.43;;;;;;;18.29;100.00;100442.25;5051771;28;20510;-60
2023/07/01 05:00:13;;;;;;;6.85;5.70;;;;;;;18.41;100.00;100441.34;5050388;28;20500;-61
2023/07/01 05:02:39;;;;;;;7.07;5.63;;;;;;;18.38;100.00;100440.72;5070995;28;20032;-60
2023/07/01 05:05:05;;;;;;;8.98;5.88;;;;;;;18.44;100.00;100437.59;5070864;28;20025;-59
2023/07/01 05:07:30;;;;;;;10.02;6.10;;;;;;;18.50;100.00;100433.63;5058167;28;20159;-60
2023/07/01 05:09:56;;;;;;;8.18;6.15;;;;;;;18.45;100.00;100433.97;5051711;28;20120;-60
2023/07/01 05:12:21;;;;;;;8.88;5.72;;;;;;;18.38;100.00;100436.25;5050747;28;20052;-61
2023/07/01 05:14:47;;;;;;;6.45;5.82;;;;;;;18.53;100.00;100433.41;5051243;28;20111;-60
2023/07/01 05:17:12;;;;;;;7.43;5.78;;;;;;;18.56;100.00;100427.84;5049083;28;20481;-60
2023/07/01 05:19:38;;;;;;;9.73;6.03;;;;;;;18.49;100.00;100421.28;5055582;28;20035;-60
2023/07/01 05:22:03;;;;;;;7.90;5.68;;;;;;;18.42;100.00;100421.72;5051040;28;20108;-60
2023/07/01 05:24:28;;;;;;;6.50;5.90;;;;;;;18.57;100.00;100434.88;5038353;28;20388;-61
2023/07/01 05:26:54;;;;;;;8.20;5.63;;;;;;;18.59;100.00;100424.09;5059346;28;20029;-59
2023/07/01 05:29:20;;;;;;;6.50;5.65;;;;;;;18.63;100.00;100429.09;5051237;28;20413;-63
2023/07/01 05:31:48;;;;;;;6.15;5.45;;;;;;;18.61;100.00;100433.69;5050969;28;20074;-61
2023/07/01 05:34:14;;;;;;;5.85;5.25;;;;;;;18.63;100.00;100423.75;5050850;28;20052;-69
2023/07/01 05:36:39;;;;;;;7.28;5.43;;;;;;;18.67;100.00;100419.88;5051335;28;20029;-60
2023/07/01 05:39:05;;;;;;;5.65;4.65;;;;;;;18.72;100.00;100418.69;5050391;28;20436;-60
2023/07/01 05:41:31;;;;;;;7.78;4.95;;;;;;;18.77;100.00;100421.84;5042306;28;20211;-60
2023/07/01 05:43:56;;;;;;;5.90;4.53;;;;;;;18.66;100.00;100418.19;5048094;28;20090;-61
2023/07/01 05:46:21;;;;;;;5.60;4.95;;;;;;;18.62;100.00;100421.19;5061083;28;20421;-60
2023/07/01 05:48:47;;;;;;;4.82;4.30;;;;;;;18.84;100.00;100422.25;5050496;28;20036;-59
2023/07/01 05:51:12;;;;;;;5.07;4.32;;;;;;;18.85;100.00;100422.16;5050009;28;20027;-61
2023/07/01 05:53:37;;;;;;;4.20;3.80;;;;;;;18.84;100.00;100420.41;5051267;28;20071;-60
2023/07/01 05:56:03;;;;;;;6.10;4.40;;;;;;;18.84;100.00;100422.25;5055268;28;20049;-60
2023/07/01 05:58:28;;;;;;;4.97;4.15;;;;;;;18.81;100.00;100417.97;5049565;28;20029;-60
2023/07/01 06:00:53;;;;;;;5.97;4.22;;;;;;;18.94;100.00;100420.59;5060431;28;20106;-60
2023/07/01 06:03:19;;;;;;;4.22;3.75;;;;;;;18.93;100.00;100419.72;5049894;28;20032;-62
2023/07/01 06:05:44;;;;;;;3.85;3.38;;;;;;;18.87;100.00;100414.84;5049509;28;20028;-60
2023/07/01 06:08:10;;;;;;;5.50;4.00;;;;;;;18.86;100.00;100423.84;5049013;28;20075;-61
2023/07/01 06:10:37;;;;;;;4.60;4.03;;;;;;;18.91;100.00;100420.81;5049150;28;20082;-60
2023/07/01 06:13:02;;;;;;;4.82;3.65;;;;;;;18.75;100.00;100418.47;5052176;28;20342;-60
2023/07/01 06:15:27;;;;;;;4.70;4.00;;;;;;;18.83;100.00;100418.72;5045255;28;20087;-60
2023/07/01 06:17:53;;;;;;;4.13;3.67;;;;;;;18.84;100.00;100414.25;5048562;28;20013;-59
2023/07/01 06:20:18;;;;;;;5.25;3.53;;;;;;;18.93;100.00;100413.53;5049656;28;20123;-61
2023/07/01 06:22:44;;;;;;;5.63;3.60;;;;;;;18.79;100.00;100411.94;5046552;28;20029;-60
2023/07/01 06:25:10;;;;;;;4.68;3.40;;;;;;;18.96;100.00;100415.97;5048597;28;20036;-60
2023/07/01 06:27:36;;;;;;;4.28;3.50;;;;;;;19.01;100.00;100410.28;5047934;28;20463;-60
2023/07/01 06:30:03;;;;;;;6.30;3.85;;;;;;;19.02;100.00;100417.34;5045934;28;20044;-59
2023/07/01 06:32:29;;;;;;;8.20;3.78;;;;;;;19.04;100.00;100408.25;5049254;28;20033;-61
2023/07/01 06:34:54;;;;;;;5.35;4.05;;;;;;;19.06;100.00;100418.81;5048735;28;20061;-61
2023/07/01 06:37:19;;;;;;;3.92;3.55;;;;;;;19.10;100.00;100417.63;5049555;28;20469;-61
2023/07/01 06:39:45;;;;;;;4.93;3.50;;;;;;;19.08;100.00;100422.22;5047508;28;20079;-62
2023/07/01 06:42:12;;;;;;;4.03;3.55;;;;;;;18.99;100.00;100418.41;5047260;28;20027;-61
2023/07/01 06:44:37;;;;;;;3.90;3.50;;;;;;;18.92;100.00;100417.19;5048270;28;20029;-60
2023/07/01 06:47:03;;;;;;;4.20;3.80;;;;;;;19.03;100.00;100429.72;5048347;28;20492;-61
2023/07/01 06:49:28;;;;;;;3.92;3.28;;;;;;;19.09;100.00;100418.59;5054460;28;20031;-60
2023/07/01 06:51:54;;;;;;;3.58;3.28;;;;;;;19.15;100.00;100417.28;5059097;28;20029;-60
2023/07/01 06:54:19;;;;;;;4.38;3.50;;;;;;;19.26;100.00;100411.09;5056549;28;20029;-60
2023/07/01 06:56:45;;;;;;;3.72;3.05;;;;;;;19.35;100.00;100423.72;5056046;28;20108;-59
2023/07/01 06:59:10;;;;;;;4.13;3.28;;;;;;;19.43;100.00;100417.78;5052534;28;20059;-61
2023/07/01 07:01:35;;;;;;;3.63;3.00;;;;;;;19.53;100.00;100405.41;5047378;28;20423;-60
2023/07/01 07:04:01;;;;;;;4.95;2.97;;;;;;;19.72;100.00;100406.63;5062413;28;20048;-60
2023/07/01 07:06:26;;;;;;;3.60;2.85;;;;;;;19.75;100.00;100408.19;5059288;28;20032;-59
2023/07/01 07:08:51;;;;;;;3.78;2.75;;;;;;;19.86;100.00;100405.50;5055950;28;20090;-60
2023/07/01 07:11:17;;;;;;;3.65;3.00;;;;;;;19.81;100.00;100405.88;5055651;28;20566;-61
2023/07/01 07:13:42;;;;;;;5.63;3.05;;;;;;;19.90;100.00;100401.59;5058248;28;20032;-59
2023/07/01 07:16:07;;;;;;;3.88;2.70;;;;;;;19.73;100.00;100408.31;5045975;28;20029;-60
2023/07/01 07:18:33;;;;;;;5.63;2.70;;;;;;;19.77;100.00;100400.88;5057837;28;20052;-58
2023/07/01 07:20:58;;;;;;;3.70;2.75;;;;;;;19.66;100.00;100399.09;5056560;28;20104;-61
2023/07/01 07:23:24;;;;;;;4.28;2.72;;;;;;;19.79;100.00;100397.13;5053317;28;20115;-60
2023/07/01 07:25:49;;;;;;;3.92;2.80;;;;;;;19.86;100.00;100399.31;5046226;28;20405;-60
2023/07/01 07:28:16;;;;;;;2.30;2.17;;;;;;;19.98;100.00;100394.81;5055290;28;20017;-61
2023/07/01 07:30:41;;;;;;;2.80;2.20;;;;;;;20.04;100.00;100396.97;5037562;28;20107;-60
2023/07/01 07:33:07;;;;;;;4.45;2.45;;;;;;;20.13;100.00;100395.38;5047997;28;20440;-60
2023/07/01 07:35:33;;;;;;;2.20;2.10;;;;;;;19.90;100.00;100400.75;5046670;28;20045;-60
2023/07/01 07:37:58;;;;;;;2.03;1.88;;;;;;;20.09;100.00;100389.44;5048282;28;20512;-60
2023/07/01 07:40:23;;;;;;;1.85;1.75;;;;;;;20.05;100.00;100393.34;5058372;28;20507;-60
2023/07/01 07:42:53;;;;;;;1.90;1.80;;;;;;;20.19;100.00;100389.53;5054474;28;20368;-60
2023/07/01 07:45:20;;;;;;;1.95;1.80;;;;;;;20.14;100.00;100384.56;5057072;28;20437;-60
2023/07/01 07:47:45;;;;;;;1.80;1.70;;;;;;;20.19;100.00;100385.03;5051603;28;20032;-60
2023/07/01 07:50:11;;;;;;;1.63;1.52;;;;;;;20.37;100.00;100395.19;5048461;28;20025;-59
2023/07/01 07:52:36;;;;;;;1.50;1.40;;;;;;;20.49;100.00;100395.16;5047628;28;20108;-64
2023/07/01 07:55:01;;;;;;;1.45;1.35;;;;;;;20.38;100.00;100386.19;5047585;28;20079;-60
2023/07/01 07:57:27;;;;;;;1.42;1.40;;;;;;;20.38;100.00;100388.84;5047474;28;20563;-60
2023/07/01 07:59:53;;;;;;;1.30;1.30;;;;;;;20.43;100.00;100396.50;5046977;28;20040;-60
2023/07/01 08:02:18;;;;;;;1.20;1.20;;;;;;;20.45;100.00;100391.88;5030549;28;20083;-60
2023/07/01 08:04:43;;;;;;;1.63;1.52;;;;;;;20.52;100.00;100389.53;5027649;28;20496;-60
2023/07/01 08:07:10;;;;;;;1.60;1.42;;;;;;;20.49;100.00;100390.66;5027469;28;20105;-60
2023/07/01 08:09:35;;;;;;;1.83;1.40;;;;;;;20.37;100.00;100387.16;5033180;28;20113;-60
2023/07/01 08:12:01;;;;;;;1.60;1.50;;;;;;;20.34;100.00;100382.06;5040276;28;20112;-60
2023/07/01 08:14:27;;;;;;;1.50;1.40;;;;;;;20.28;100.00;100383.44;5056655;28;20033;-60
2023/07/01 08:16:53;;;;;;;1.50;1.40;;;;;;;20.23;100.00;100379.44;5055635;28;20086;-60
2023/07/01 08:19:19;;;;;;;2.22;1.40;;;;;;;20.26;100.00;100372.00;5054414;28;20025;-61
2023/07/01 08:21:44;;;;;;;2.72;1.52;;;;;;;20.39;100.00;100379.00;5058104;28;20464;-61
2023/07/01 08:24:10;;;;;;;1.80;1.70;;;;;;;20.40;100.00;100380.72;5055341;28;20071;-60
2023/07/01 08:26:35;;;;;;;1.80;1.70;;;;;;;20.41;100.00;100385.94;5048621;28;20321;-62
2023/07/01 08:29:01;;;;;;;1.70;1.60;;;;;;;20.52;100.00;100384.19;5045749;28;20025;-60
2023/07/01 08:31:27;;;;;;;1.88;1.77;;;;;;;20.39;100.00;100379.00;5046633;28;20475;-60
2023/07/01 08:33:52;;;;;;;1.60;1.50;;;;;;;20.60;100.00;100388.91;5045394;28;20700;-61
2023/07/01 08:36:18;;;;;;;3.92;1.85;;;;;;;20.61;100.00;100378.06;5047403;28;20123;-60
2023/07/01 08:38:43;;;;;;;1.85;1.75;;;;;;;20.87;100.00;100383.06;5047124;28;20021;-61
2023/07/01 08:41:12;;;;;;;1.80;1.70;;;;;;;21.02;100.00;100385.41;5048688;28;20033;-60
2023/07/01 08:43:38;;;;;;;3.17;1.67;;;;;;;21.04;100.00;100394.19;5040836;28;20013;-61
2023/07/01 08:46:04;;;;;;;2.35;1.70;;;;;;;20.91;100.00;100386.34;5030137;28;20028;-60
2023/07/01 08:48:32;;;;;;;1.40;1.40;;;;;;;20.96;100.00;100392.16;5048772;28;20373;-61
2023/07/01 08:51:12;;;;;;;1.40;1.40;;;;;;;20.83;100.00;100389.66;5066640;28;20213;-60
2023/07/01 08:53:38;;;;;;;1.75;1.42;;;;;;;20.59;100.00;100390.75;5049131;28;20035;-60
2023/07/01 08:56:04;;;;;;;2.50;1.40;;;;;;;20.44;100.00;100388.34;5041037;28;20540;-59
2023/07/01 08:58:30;;;;;;;1.15;1.08;;;;;;;20.57;100.00;100392.69;5056609;28;20063;-60
2023/07/01 09:00:56;;;;;;;3.22;1.20;;;;;;;20.58;100.00;100389.03;5055339;28;20037;-60
2023/07/01 09:03:22;;;;;;;1.20;1.10;;;;;;;20.63;100.00;100389.50;5056108;28;20036;-60
2023/07/01 09:05:48;;;;;;;1.85;1.20;;;;;;;20.38;100.00;100396.88;5054630;28;20016;-59
2023/07/01 09:08:13;;;;;;;1.55;1.25;;;;;;;20.50;100.00;100402.22;5057047;28;20029;-60
2023/07/01 09:10:39;;;;;;;1.40;1.17;;;;;;;20.41;100.00;100388.59;5045433;28;20032;-59
2023/07/01 09:13:14;;;;;;;1.75;1.52;;;;;;;20.50;100.00;100394.19;5045927;28;20029;-58
2023/07/01 09:15:43;;;;;;;5.18;1.33;;;;;;;20.58;100.00;100389.88;5050218;28;20554;-59
2023/07/01 09:18:22;;;;;;;2.47;1.17;;;;;;;20.93;100.00;100387.06;5040212;28;20032;-60
2023/07/01 09:20:49;;;;;;;0.98;0.93;;;;;;;21.18;100.00;100390.28;5053396;28;20029;-60
2023/07/01 09:23:34;;;;;;;3.20;1.10;;;;;;;21.58;100.00;100391.31;5056061;28;20032;-61
2023/07/01 09:26:08;;;;;;;1.08;1.00;;;;;;;21.71;100.00;100391.94;5055003;28;20377;-61
2023/07/01 09:28:34;;;;;;;2.20;1.50;;;;;;;21.82;100.00;100395.53;5054454;28;20039;-59
2023/07/01 09:31:00;;;;;;;4.10;1.67;;;;;;;21.76;100.00;100393.41;5055142;28;20028;-61
2023/07/01 09:33:26;;;;;;;3.80;2.00;;;;;;;21.74;100.00;100392.66;5056497;28;20025;-63
2023/07/01 09:35:57;;;;;;;1.50;1.40;;;;;;;21.61;100.00;100393.72;5037257;28;20009;-60
2023/07/01 09:38:23;;;;;;;3.15;1.58;;;;;;;21.39;100.00;100395.63;5050537;28;20039;-61
2023/07/01 09:40:49;;;;;;;2.00;1.77;;;;;;;21.19;100.00;100392.84;5060631;28;20445;-58
2023/07/01 09:43:15;;;;;;;3.17;1.85;;;;;;;21.32;100.00;100398.00;5055583;28;20104;-58
2023/07/01 09:45:54;;;;;;;3.00;1.85;;;;;;;21.62;100.00;100394.59;5056456;28;20106;-61
2023/07/01 09:48:20;;;;;;;5.00;2.78;;;;;;;21.70;100.00;100390.25;5039993;28;20024;-60
2023/07/01 09:50:46;;;;;;;4.60;2.80;;;;;;;21.70;100.00;100392.06;5058219;28;20565;-59
2023/07/01 09:53:19;;;;;;;5.75;2.70;;;;;;;21.62;100.00;100395.44;5057500;28;20307;-59
2023/07/01 09:55:44;;;;;;;6.47;3.17;;;;;;;21.48;100.00;100396.66;5055980;28;20025;-60
2023/07/01 09:58:09;;;;;;;7.07;3.47;;;;;;;21.11;100.00;100405.22;5059325;28;20032;-59
2023/07/01 10:00:35;;;;;;;7.63;4.05;;;;;;;20.90;100.00;100396.22;5038433;28;20036;-60
2023/07/01 10:03:02;;;;;;;8.35;3.60;;;;;;;20.69;100.00;100397.03;5040866;28;20495;-60
2023/07/01 10:05:28;;;;;;;12.18;3.80;;;;;;;20.71;100.00;100391.53;5058754;28;20040;-59
2023/07/01 10:07:53;;;;;;;9.30;3.92;;;;;;;20.68;100.00;100384.59;5039900;28;20366;-59
2023/07/01 10:10:21;;;;;;;5.90;3.60;;;;;;;20.67;100.00;100398.09;5058461;28;20032;-60
2023/07/01 10:12:47;;;;;;;7.38;3.50;;;;;;;20.60;100.00;100397.78;5060707;28;20016;-60
2023/07/01 10:15:13;;;;;;;6.82;3.75;;;;;;;20.62;100.00;100389.63;5039847;28;20020;-60
2023/07/01 10:17:49;;;;;;;8.15;3.70;;;;;;;20.60;100.00;100389.75;5037432;28;20625;-60
2023/07/01 10:20:31;;;;;;;9.68;3.85;;;;;;;20.60;100.00;100402.28;5050032;28;20024;-60
2023/07/01 10:22:58;;;;;;;7.97;3.78;;;;;;;20.60;100.00;100402.28;5048133;28;20048;-59
2023/07/01 10:25:34;;;;;;;5.20;3.45;;;;;;;20.60;100.00;100400.47;5041142;28;20674;-59
2023/07/01 10:28:00;;;;;;;6.68;3.78;;;;;;;20.61;100.00;100406.66;5046687;28;20021;-59
2023/07/01 10:30:26;;;;;;;6.72;3.75;;;;;;;20.71;100.00;100403.06;5047278;28;20383;-59
2023/07/01 10:32:51;;;;;;;6.13;3.20;;;;;;;20.72;100.00;100406.63;5049921;28;20431;-62
2023/07/01 10:35:17;;;;;;;5.70;3.50;;;;;;;20.94;100.00;100405.69;5027379;28;20081;-61
2023/07/01 10:38:04;;;;;;;8.15;3.97;;;;;;;20.93;100.00;100405.81;5042070;28;20029;-62
2023/07/01 10:40:29;;;;;;;9.93;4.10;;;;;;;21.21;100.00;100404.28;5037052;28;20382;-66
2023/07/01 10:43:20;;;;;;;10.30;3.83;;;;;;;21.09;100.00;100408.00;5035138;28;20021;-62
2023/07/01 10:45:46;;;;;;;8.13;3.65;;;;;;;21.27;100.00;100413.63;5037500;28;20485;-60
2023/07/01 10:48:13;;;;;;;10.85;4.00;;;;;;;21.13;100.00;100413.97;5035642;28;20021;-62
2023/07/01 10:51:05;;;;;;;8.18;3.13;;;;;;;21.20;100.00;100415.97;5038473;28;20033;-58
2023/07/01 10:53:31;;;;;;;6.93;3.40;;;;;;;21.10;100.00;100417.72;5055024;28;20409;-60
2023/07/01 10:56:14;;;;;;;7.13;3.35;;;;;;;21.16;100.00;100411.84;5058591;28;20070;-62
2023/07/01 10:58:40;;;;;;;7.88;4.05;;;;;;;21.21;100.00;100415.00;5049938;28;20052;-58
2023/07/01 11:01:05;;;;;;;9.45;3.50;;;;;;;21.33;100.00;100417.59;5057801;28;20062;-61
2023/07/01 11:03:34;;;;;;;7.95;3.30;;;;;;;21.83;100.00;100410.66;5037147;28;20029;-62
2023/07/01 11:06:00;;;;;;;6.95;3.70;;;;;;;21.98;100.00;100419.16;5055214;28;20027;-62
2023/07/01 11:08:27;;;;;;;8.70;3.40;;;;;;;22.07;100.00;100412.13;5038873;28;20029;-61
2023/07/01 11:10:52;;;;;;;9.52;3.47;;;;;;;22.21;100.00;100410.84;5055669;28;20040;-63
2023/07/01 11:13:18;;;;;;;4.45;2.80;;;;;;;22.43;100.00;100411.59;5055711;28;20032;-62
2023/07/01 11:16:02;;;;;;;9.27;3.75;;;;;;;22.28;100.00;100416.53;5050060;28;20070;-62